Terminal Aerodrome Forecast
Issued by NWS

Home | Current Version | Previous Version | Text Only | Print | Product List | Glossary On
Versions: 1 2 3 4 5 6 7 8 9 10 11 12 13 14 15 16 17 18 19 20 21 22 23 24 25 26 27 28 29 30 31 32 33 34 35 36 37 38 39 40 41 42 43 44 45 46 47 48 49 50
000
FTUS44 KLIX 021303 AAB
TAFASD
TAF AMD
KASD 021303Z 0213/0312 00000KT P6SM OVC003
     FM021600 12004KT P6SM VCTS BKN010CB
     FM021800 17010G25KT 3SM TSRA BKN020CB OVC150
     FM022100 18007KT P6SM SHRA OVC050
     FM030300 22005KT P6SM VCSH SCT010 BKN050 OVC150=

USA.gov is the U.S. government's official web portal to all federal, state and local government web resources and services.